sensor_id;sensor_type;location;lat;lon;timestamp;P1;durP1;ratioP1;P2;durP2;ratioP2
19951;SDS011;10137;49.406;19.484;2022-08-11T00:01:09;7.20;;;4.10;;
19951;SDS011;10137;49.406;19.484;2022-08-11T00:03:43;5.73;;;3.67;;
19951;SDS011;10137;49.406;19.484;2022-08-11T00:06:14;7.37;;;4.00;;
19951;SDS011;10137;49.406;19.484;2022-08-11T00:08:48;9.77;;;4.27;;
19951;SDS011;10137;49.406;19.484;2022-08-11T00:11:17;4.60;;;3.20;;
19951;SDS011;10137;49.406;19.484;2022-08-11T00:13:49;7.57;;;3.80;;
19951;SDS011;10137;49.406;19.484;2022-08-11T00:16:18;5.70;;;3.87;;
19951;SDS011;10137;49.406;19.484;2022-08-11T00:18:48;5.23;;;3.63;;
19951;SDS011;10137;49.406;19.484;2022-08-11T00:21:19;7.07;;;3.90;;
19951;SDS011;10137;49.406;19.484;2022-08-11T00:23:51;5.17;;;3.30;;
19951;SDS011;10137;49.406;19.484;2022-08-11T00:26:20;5.83;;;3.63;;
19951;SDS011;10137;49.406;19.484;2022-08-11T00:28:51;5.23;;;4.00;;
19951;SDS011;10137;49.406;19.484;2022-08-11T00:31:20;7.00;;;3.40;;
19951;SDS011;10137;49.406;19.484;2022-08-11T00:33:50;9.73;;;3.90;;
19951;SDS011;10137;49.406;19.484;2022-08-11T00:36:19;4.90;;;3.90;;
19951;SDS011;10137;49.406;19.484;2022-08-11T00:38:51;5.33;;;3.07;;
19951;SDS011;10137;49.406;19.484;2022-08-11T00:41:27;5.87;;;3.67;;
19951;SDS011;10137;49.406;19.484;2022-08-11T00:46:56;7.03;;;3.50;;
19951;SDS011;10137;49.406;19.484;2022-08-11T00:49:34;7.10;;;3.50;;
19951;SDS011;10137;49.406;19.484;2022-08-11T00:52:12;4.87;;;3.73;;
19951;SDS011;10137;49.406;19.484;2022-08-11T01:01:10;6.47;;;4.07;;
19951;SDS011;10137;49.406;19.484;2022-08-11T01:03:55;6.77;;;4.10;;
19951;SDS011;10137;49.406;19.484;2022-08-11T01:07:09;15.40;;;4.00;;
19951;SDS011;10137;49.406;19.484;2022-08-11T01:10:06;5.90;;;3.63;;
19951;SDS011;10137;49.406;19.484;2022-08-11T01:12:59;5.33;;;3.50;;
19951;SDS011;10137;49.406;19.484;2022-08-11T01:15:53;8.40;;;3.93;;
19951;SDS011;10137;49.406;19.484;2022-08-11T01:22:10;5.30;;;3.90;;
19951;SDS011;10137;49.406;19.484;2022-08-11T01:43:31;4.33;;;3.30;;
19951;SDS011;10137;49.406;19.484;2022-08-11T01:46:42;5.50;;;3.80;;
19951;SDS011;10137;49.406;19.484;2022-08-11T01:49:20;6.97;;;3.60;;
19951;SDS011;10137;49.406;19.484;2022-08-11T01:52:01;7.60;;;4.37;;
19951;SDS011;10137;49.406;19.484;2022-08-11T01:54:40;4.83;;;3.80;;
19951;SDS011;10137;49.406;19.484;2022-08-11T01:57:18;6.57;;;3.67;;
19951;SDS011;10137;49.406;19.484;2022-08-11T01:59:56;5.43;;;3.87;;
19951;SDS011;10137;49.406;19.484;2022-08-11T02:02:40;5.97;;;3.90;;
19951;SDS011;10137;49.406;19.484;2022-08-11T02:05:34;5.63;;;4.03;;
19951;SDS011;10137;49.406;19.484;2022-08-11T02:08:13;7.17;;;3.80;;
19951;SDS011;10137;49.406;19.484;2022-08-11T02:10:57;6.93;;;3.60;;
19951;SDS011;10137;49.406;19.484;2022-08-11T02:13:53;5.97;;;3.40;;
19951;SDS011;10137;49.406;19.484;2022-08-11T02:16:32;5.50;;;3.70;;
19951;SDS011;10137;49.406;19.484;2022-08-11T02:19:17;8.47;;;3.63;;
19951;SDS011;10137;49.406;19.484;2022-08-11T02:22:07;5.40;;;3.67;;
19951;SDS011;10137;49.406;19.484;2022-08-11T02:25:01;6.53;;;3.90;;
19951;SDS011;10137;49.406;19.484;2022-08-11T02:27:35;4.43;;;3.90;;
19951;SDS011;10137;49.406;19.484;2022-08-11T02:30:08;8.17;;;3.97;;
19951;SDS011;10137;49.406;19.484;2022-08-11T02:32:45;6.57;;;3.70;;
19951;SDS011;10137;49.406;19.484;2022-08-11T02:35:37;4.83;;;3.57;;
19951;SDS011;10137;49.406;19.484;2022-08-11T02:38:13;6.60;;;3.83;;
19951;SDS011;10137;49.406;19.484;2022-08-11T02:40:47;4.63;;;3.60;;
19951;SDS011;10137;49.406;19.484;2022-08-11T02:43:22;5.53;;;3.50;;
19951;SDS011;10137;49.406;19.484;2022-08-11T02:46:00;4.43;;;3.60;;
19951;SDS011;10137;49.406;19.484;2022-08-11T02:48:51;5.23;;;3.53;;
19951;SDS011;10137;49.406;19.484;2022-08-11T02:51:49;8.40;;;3.90;;
19951;SDS011;10137;49.406;19.484;2022-08-11T02:54:30;5.90;;;4.20;;
19951;SDS011;10137;49.406;19.484;2022-08-11T02:57:05;6.70;;;3.73;;
19951;SDS011;10137;49.406;19.484;2022-08-11T02:59:43;4.90;;;3.60;;
19951;SDS011;10137;49.406;19.484;2022-08-11T03:02:32;5.00;;;3.60;;
19951;SDS011;10137;49.406;19.484;2022-08-11T03:08:24;4.73;;;3.50;;
19951;SDS011;10137;49.406;19.484;2022-08-11T03:11:07;4.40;;;3.43;;
19951;SDS011;10137;49.406;19.484;2022-08-11T03:13:58;6.20;;;3.60;;
19951;SDS011;10137;49.406;19.484;2022-08-11T03:16:56;6.53;;;3.90;;
19951;SDS011;10137;49.406;19.484;2022-08-11T03:19:32;9.37;;;3.80;;
19951;SDS011;10137;49.406;19.484;2022-08-11T03:22:18;6.13;;;3.70;;
19951;SDS011;10137;49.406;19.484;2022-08-11T03:24:53;4.97;;;3.30;;
19951;SDS011;10137;49.406;19.484;2022-08-11T03:27:32;5.30;;;3.60;;
19951;SDS011;10137;49.406;19.484;2022-08-11T03:30:09;4.57;;;3.50;;
19951;SDS011;10137;49.406;19.484;2022-08-11T03:32:45;9.27;;;3.27;;
19951;SDS011;10137;49.406;19.484;2022-08-11T03:35:53;4.83;;;3.70;;
19951;SDS011;10137;49.406;19.484;2022-08-11T03:38:35;4.87;;;3.30;;
19951;SDS011;10137;49.406;19.484;2022-08-11T03:41:22;5.70;;;3.70;;
19951;SDS011;10137;49.406;19.484;2022-08-11T03:44:17;6.27;;;3.87;;
19951;SDS011;10137;49.406;19.484;2022-08-11T03:50:09;4.97;;;3.77;;
19951;SDS011;10137;49.406;19.484;2022-08-11T03:52:52;6.70;;;4.03;;
19951;SDS011;10137;49.406;19.484;2022-08-11T03:55:38;4.40;;;3.60;;
19951;SDS011;10137;49.406;19.484;2022-08-11T03:58:36;9.53;;;4.17;;
19951;SDS011;10137;49.406;19.484;2022-08-11T04:04:28;6.90;;;3.67;;
19951;SDS011;10137;49.406;19.484;2022-08-11T04:07:27;6.70;;;3.57;;
19951;SDS011;10137;49.406;19.484;2022-08-11T04:10:34;8.20;;;3.93;;
19951;SDS011;10137;49.406;19.484;2022-08-11T04:19:29;5.80;;;3.40;;
19951;SDS011;10137;49.406;19.484;2022-08-11T04:22:15;6.67;;;3.47;;
19951;SDS011;10137;49.406;19.484;2022-08-11T04:25:06;5.63;;;3.93;;
19951;SDS011;10137;49.406;19.484;2022-08-11T04:28:09;7.87;;;4.20;;
19951;SDS011;10137;49.406;19.484;2022-08-11T04:30:57;5.57;;;3.90;;
19951;SDS011;10137;49.406;19.484;2022-08-11T04:33:53;8.10;;;4.03;;
19951;SDS011;10137;49.406;19.484;2022-08-11T04:36:40;5.57;;;4.17;;
19951;SDS011;10137;49.406;19.484;2022-08-11T04:39:46;7.20;;;3.73;;
19951;SDS011;10137;49.406;19.484;2022-08-11T04:42:46;6.63;;;4.03;;
19951;SDS011;10137;49.406;19.484;2022-08-11T04:52:31;7.03;;;3.90;;
19951;SDS011;10137;49.406;19.484;2022-08-11T04:55:30;6.80;;;3.80;;
19951;SDS011;10137;49.406;19.484;2022-08-11T04:58:29;5.70;;;3.60;;
19951;SDS011;10137;49.406;19.484;2022-08-11T05:01:31;5.83;;;3.50;;
19951;SDS011;10137;49.406;19.484;2022-08-11T05:04:15;7.10;;;3.77;;
19951;SDS011;10137;49.406;19.484;2022-08-11T05:07:34;7.80;;;3.80;;
19951;SDS011;10137;49.406;19.484;2022-08-11T05:10:27;6.63;;;3.50;;
19951;SDS011;10137;49.406;19.484;2022-08-11T05:13:12;8.60;;;3.67;;
19951;SDS011;10137;49.406;19.484;2022-08-11T05:16:10;8.23;;;3.90;;
19951;SDS011;10137;49.406;19.484;2022-08-11T05:18:59;6.03;;;3.60;;
19951;SDS011;10137;49.406;19.484;2022-08-11T05:21:47;8.87;;;3.43;;
19951;SDS011;10137;49.406;19.484;2022-08-11T05:24:41;7.27;;;3.80;;
19951;SDS011;10137;49.406;19.484;2022-08-11T05:27:32;8.23;;;3.33;;
19951;SDS011;10137;49.406;19.484;2022-08-11T05:30:27;8.40;;;3.80;;
19951;SDS011;10137;49.406;19.484;2022-08-11T05:33:18;6.53;;;3.53;;
19951;SDS011;10137;49.406;19.484;2022-08-11T05:36:10;5.70;;;3.30;;
19951;SDS011;10137;49.406;19.484;2022-08-11T05:38:48;8.60;;;3.57;;
19951;SDS011;10137;49.406;19.484;2022-08-11T05:41:38;8.40;;;3.70;;
19951;SDS011;10137;49.406;19.484;2022-08-11T05:44:24;6.13;;;2.83;;
19951;SDS011;10137;49.406;19.484;2022-08-11T05:47:19;7.80;;;3.10;;
19951;SDS011;10137;49.406;19.484;2022-08-11T05:50:07;6.67;;;3.20;;
19951;SDS011;10137;49.406;19.484;2022-08-11T05:52:55;6.23;;;3.70;;
19951;SDS011;10137;49.406;19.484;2022-08-11T05:55:40;10.33;;;3.53;;
19951;SDS011;10137;49.406;19.484;2022-08-11T05:58:30;6.07;;;3.37;;
19951;SDS011;10137;49.406;19.484;2022-08-11T06:00:59;7.00;;;3.33;;
19951;SDS011;10137;49.406;19.484;2022-08-11T06:03:29;8.30;;;3.20;;
19951;SDS011;10137;49.406;19.484;2022-08-11T06:06:22;6.47;;;2.90;;
19951;SDS011;10137;49.406;19.484;2022-08-11T06:08:57;4.70;;;2.67;;
19951;SDS011;10137;49.406;19.484;2022-08-11T06:11:27;6.13;;;3.13;;
19951;SDS011;10137;49.406;19.484;2022-08-11T06:13:57;8.90;;;3.23;;
19951;SDS011;10137;49.406;19.484;2022-08-11T06:16:30;4.93;;;2.97;;
19951;SDS011;10137;49.406;19.484;2022-08-11T06:18:59;7.97;;;2.90;;
19951;SDS011;10137;49.406;19.484;2022-08-11T06:21:27;8.70;;;3.17;;
19951;SDS011;10137;49.406;19.484;2022-08-11T06:24:01;4.73;;;2.67;;
19951;SDS011;10137;49.406;19.484;2022-08-11T06:26:31;7.83;;;2.97;;
19951;SDS011;10137;49.406;19.484;2022-08-11T06:29:00;7.17;;;2.90;;
19951;SDS011;10137;49.406;19.484;2022-08-11T06:31:27;4.00;;;2.70;;
19951;SDS011;10137;49.406;19.484;2022-08-11T06:33:58;10.40;;;3.40;;
19951;SDS011;10137;49.406;19.484;2022-08-11T06:36:38;6.63;;;2.83;;
19951;SDS011;10137;49.406;19.484;2022-08-11T06:39:22;9.73;;;3.10;;
19951;SDS011;10137;49.406;19.484;2022-08-11T06:41:56;7.87;;;3.10;;
19951;SDS011;10137;49.406;19.484;2022-08-11T06:44:29;7.23;;;3.07;;
19951;SDS011;10137;49.406;19.484;2022-08-11T06:47:06;6.97;;;2.53;;
19951;SDS011;10137;49.406;19.484;2022-08-11T06:49:37;5.28;;;2.85;;
19951;SDS011;10137;49.406;19.484;2022-08-11T06:52:29;7.78;;;2.70;;
19951;SDS011;10137;49.406;19.484;2022-08-11T06:55:05;7.30;;;2.97;;
19951;SDS011;10137;49.406;19.484;2022-08-11T06:57:38;5.55;;;3.15;;
19951;SDS011;10137;49.406;19.484;2022-08-11T07:00:28;4.05;;;3.00;;
19951;SDS011;10137;49.406;19.484;2022-08-11T07:03:00;6.53;;;2.90;;
19951;SDS011;10137;49.406;19.484;2022-08-11T07:05:39;7.88;;;2.97;;
19951;SDS011;10137;49.406;19.484;2022-08-11T07:11:37;5.60;;;3.17;;
19951;SDS011;10137;49.406;19.484;2022-08-11T07:14:41;5.60;;;3.38;;
19951;SDS011;10137;49.406;19.484;2022-08-11T07:17:33;11.25;;;3.50;;
19951;SDS011;10137;49.406;19.484;2022-08-11T07:20:05;5.72;;;3.25;;
19951;SDS011;10137;49.406;19.484;2022-08-11T07:22:53;5.88;;;2.78;;
19951;SDS011;10137;49.406;19.484;2022-08-11T07:25:41;8.38;;;3.10;;
19951;SDS011;10137;49.406;19.484;2022-08-11T07:28:31;3.75;;;2.55;;
19951;SDS011;10137;49.406;19.484;2022-08-11T07:31:19;4.28;;;2.85;;
19951;SDS011;10137;49.406;19.484;2022-08-11T07:33:55;11.38;;;3.13;;
19951;SDS011;10137;49.406;19.484;2022-08-11T07:36:30;6.05;;;2.67;;
19951;SDS011;10137;49.406;19.484;2022-08-11T07:39:00;9.13;;;3.08;;
19951;SDS011;10137;49.406;19.484;2022-08-11T07:41:32;24.50;;;3.95;;
19951;SDS011;10137;49.406;19.484;2022-08-11T07:44:04;3.00;;;2.08;;
19951;SDS011;10137;49.406;19.484;2022-08-11T07:46:45;10.38;;;2.70;;
19951;SDS011;10137;49.406;19.484;2022-08-11T07:49:33;5.25;;;2.20;;
19951;SDS011;10137;49.406;19.484;2022-08-11T07:52:21;3.45;;;2.38;;
19951;SDS011;10137;49.406;19.484;2022-08-11T07:54:57;4.22;;;2.25;;
19951;SDS011;10137;49.406;19.484;2022-08-11T07:57:27;19.25;;;3.00;;
19951;SDS011;10137;49.406;19.484;2022-08-11T08:00:18;10.25;;;2.00;;
19951;SDS011;10137;49.406;19.484;2022-08-11T08:03:04;5.57;;;1.75;;
19951;SDS011;10137;49.406;19.484;2022-08-11T08:05:50;2.25;;;1.45;;
19951;SDS011;10137;49.406;19.484;2022-08-11T08:08:37;2.63;;;1.63;;
19951;SDS011;10137;49.406;19.484;2022-08-11T08:11:25;4.80;;;1.75;;
19951;SDS011;10137;49.406;19.484;2022-08-11T08:14:11;4.78;;;1.90;;
19951;SDS011;10137;49.406;19.484;2022-08-11T08:16:58;16.10;;;2.50;;
19951;SDS011;10137;49.406;19.484;2022-08-11T08:19:46;4.45;;;1.63;;
19951;SDS011;10137;49.406;19.484;2022-08-11T08:22:15;2.25;;;1.25;;
19951;SDS011;10137;49.406;19.484;2022-08-11T08:24:46;3.28;;;1.30;;
19951;SDS011;10137;49.406;19.484;2022-08-11T08:27:15;4.15;;;1.30;;
19951;SDS011;10137;49.406;19.484;2022-08-11T08:29:44;2.90;;;1.05;;
19951;SDS011;10137;49.406;19.484;2022-08-11T08:32:32;2.25;;;1.23;;
19951;SDS011;10137;49.406;19.484;2022-08-11T08:35:04;8.82;;;2.05;;
19951;SDS011;10137;49.406;19.484;2022-08-11T08:37:34;3.85;;;1.40;;
19951;SDS011;10137;49.406;19.484;2022-08-11T08:40:02;2.08;;;1.08;;
19951;SDS011;10137;49.406;19.484;2022-08-11T08:42:34;3.97;;;1.35;;
19951;SDS011;10137;49.406;19.484;2022-08-11T08:45:07;3.45;;;1.30;;
19951;SDS011;10137;49.406;19.484;2022-08-11T08:47:38;2.63;;;1.10;;
19951;SDS011;10137;49.406;19.484;2022-08-11T08:50:09;3.63;;;1.50;;
19951;SDS011;10137;49.406;19.484;2022-08-11T08:52:41;6.82;;;1.50;;
19951;SDS011;10137;49.406;19.484;2022-08-11T08:55:15;1.33;;;1.10;;
19951;SDS011;10137;49.406;19.484;2022-08-11T08:57:44;3.35;;;1.48;;
19951;SDS011;10137;49.406;19.484;2022-08-11T09:00:15;2.33;;;1.50;;
19951;SDS011;10137;49.406;19.484;2022-08-11T09:02:53;2.58;;;1.23;;
19951;SDS011;10137;49.406;19.484;2022-08-11T09:05:21;4.95;;;1.50;;
19951;SDS011;10137;49.406;19.484;2022-08-11T09:07:52;6.70;;;1.70;;
19951;SDS011;10137;49.406;19.484;2022-08-11T09:10:23;3.22;;;1.38;;
19951;SDS011;10137;49.406;19.484;2022-08-11T09:12:56;2.53;;;1.80;;
19951;SDS011;10137;49.406;19.484;2022-08-11T09:15:25;2.53;;;1.55;;
19951;SDS011;10137;49.406;19.484;2022-08-11T09:17:56;3.97;;;1.52;;
19951;SDS011;10137;49.406;19.484;2022-08-11T09:20:32;3.10;;;1.77;;
19951;SDS011;10137;49.406;19.484;2022-08-11T09:23:03;3.40;;;1.80;;
19951;SDS011;10137;49.406;19.484;2022-08-11T09:25:52;6.28;;;1.67;;
19951;SDS011;10137;49.406;19.484;2022-08-11T09:28:40;6.72;;;1.80;;
19951;SDS011;10137;49.406;19.484;2022-08-11T09:31:10;5.22;;;1.65;;
19951;SDS011;10137;49.406;19.484;2022-08-11T09:33:41;4.75;;;2.25;;
19951;SDS011;10137;49.406;19.484;2022-08-11T09:36:11;2.42;;;1.65;;
19951;SDS011;10137;49.406;19.484;2022-08-11T09:38:57;6.75;;;2.00;;
19951;SDS011;10137;49.406;19.484;2022-08-11T09:41:44;9.95;;;2.35;;
19951;SDS011;10137;49.406;19.484;2022-08-11T09:44:13;9.77;;;1.90;;
19951;SDS011;10137;49.406;19.484;2022-08-11T09:46:58;10.10;;;2.42;;
19951;SDS011;10137;49.406;19.484;2022-08-11T09:49:34;3.35;;;1.50;;
19951;SDS011;10137;49.406;19.484;2022-08-11T09:52:04;3.05;;;1.67;;
19951;SDS011;10137;49.406;19.484;2022-08-11T09:54:34;8.85;;;2.03;;
19951;SDS011;10137;49.406;19.484;2022-08-11T09:57:04;4.65;;;1.70;;
19951;SDS011;10137;49.406;19.484;2022-08-11T09:59:51;2.47;;;1.60;;
19951;SDS011;10137;49.406;19.484;2022-08-11T10:02:22;5.18;;;2.15;;
19951;SDS011;10137;49.406;19.484;2022-08-11T10:04:56;4.30;;;2.10;;
19951;SDS011;10137;49.406;19.484;2022-08-11T10:07:41;3.25;;;1.63;;
19951;SDS011;10137;49.406;19.484;2022-08-11T10:10:15;5.68;;;1.80;;
19951;SDS011;10137;49.406;19.484;2022-08-11T10:12:49;6.25;;;2.03;;
19951;SDS011;10137;49.406;19.484;2022-08-11T10:15:22;3.22;;;1.77;;
19951;SDS011;10137;49.406;19.484;2022-08-11T10:18:03;2.47;;;1.70;;
19951;SDS011;10137;49.406;19.484;2022-08-11T10:20:59;5.53;;;1.77;;
19951;SDS011;10137;49.406;19.484;2022-08-11T10:23:30;5.97;;;1.63;;
19951;SDS011;10137;49.406;19.484;2022-08-11T10:26:28;2.65;;;1.60;;
19951;SDS011;10137;49.406;19.484;2022-08-11T10:29:13;2.42;;;1.60;;
19951;SDS011;10137;49.406;19.484;2022-08-11T10:32:00;2.58;;;1.58;;
19951;SDS011;10137;49.406;19.484;2022-08-11T10:34:47;1.98;;;1.25;;
19951;SDS011;10137;49.406;19.484;2022-08-11T10:37:22;3.65;;;1.10;;
19951;SDS011;10137;49.406;19.484;2022-08-11T10:39:51;2.72;;;1.10;;
19951;SDS011;10137;49.406;19.484;2022-08-11T10:42:20;3.03;;;1.15;;
19951;SDS011;10137;49.406;19.484;2022-08-11T10:45:07;2.30;;;1.20;;
19951;SDS011;10137;49.406;19.484;2022-08-11T10:47:50;2.03;;;1.25;;
19951;SDS011;10137;49.406;19.484;2022-08-11T10:50:20;1.60;;;1.10;;
19951;SDS011;10137;49.406;19.484;2022-08-11T10:53:07;1.40;;;1.08;;
19951;SDS011;10137;49.406;19.484;2022-08-11T10:55:53;2.90;;;1.30;;
19951;SDS011;10137;49.406;19.484;2022-08-11T10:58:39;11.20;;;1.75;;
19951;SDS011;10137;49.406;19.484;2022-08-11T11:01:14;8.20;;;1.45;;
19951;SDS011;10137;49.406;19.484;2022-08-11T11:03:53;1.20;;;1.02;;
19951;SDS011;10137;49.406;19.484;2022-08-11T11:06:25;4.82;;;1.42;;
19951;SDS011;10137;49.406;19.484;2022-08-11T11:09:02;5.25;;;1.50;;
19951;SDS011;10137;49.406;19.484;2022-08-11T11:11:46;2.00;;;1.40;;
19951;SDS011;10137;49.406;19.484;2022-08-11T11:14:33;2.55;;;1.20;;
19951;SDS011;10137;49.406;19.484;2022-08-11T11:17:22;5.60;;;1.60;;
19951;SDS011;10137;49.406;19.484;2022-08-11T11:20:12;3.60;;;1.42;;
19951;SDS011;10137;49.406;19.484;2022-08-11T11:22:44;4.35;;;1.38;;
19951;SDS011;10137;49.406;19.484;2022-08-11T11:25:24;3.78;;;1.40;;
19951;SDS011;10137;49.406;19.484;2022-08-11T11:28:31;16.98;;;2.42;;
19951;SDS011;10137;49.406;19.484;2022-08-11T11:31:22;3.90;;;1.48;;
19951;SDS011;10137;49.406;19.484;2022-08-11T11:34:02;2.08;;;1.20;;
19951;SDS011;10137;49.406;19.484;2022-08-11T11:36:46;4.95;;;1.52;;
19951;SDS011;10137;49.406;19.484;2022-08-11T11:39:20;1.55;;;1.10;;
19951;SDS011;10137;49.406;19.484;2022-08-11T11:41:53;2.33;;;1.40;;
19951;SDS011;10137;49.406;19.484;2022-08-11T11:44:23;1.80;;;1.25;;
19951;SDS011;10137;49.406;19.484;2022-08-11T11:46:52;5.20;;;1.40;;
19951;SDS011;10137;49.406;19.484;2022-08-11T11:49:21;2.22;;;1.25;;
19951;SDS011;10137;49.406;19.484;2022-08-11T11:51:51;7.55;;;1.60;;
19951;SDS011;10137;49.406;19.484;2022-08-11T11:54:20;3.75;;;1.30;;
19951;SDS011;10137;49.406;19.484;2022-08-11T11:56:54;3.38;;;1.45;;
19951;SDS011;10137;49.406;19.484;2022-08-11T11:59:25;2.75;;;0.90;;
19951;SDS011;10137;49.406;19.484;2022-08-11T12:02:20;5.50;;;1.33;;
19951;SDS011;10137;49.406;19.484;2022-08-11T12:04:47;4.00;;;1.20;;
19951;SDS011;10137;49.406;19.484;2022-08-11T12:07:16;4.93;;;1.40;;
19951;SDS011;10137;49.406;19.484;2022-08-11T12:10:03;3.15;;;1.42;;
19951;SDS011;10137;49.406;19.484;2022-08-11T12:12:32;6.45;;;2.10;;
19951;SDS011;10137;49.406;19.484;2022-08-11T12:15:21;4.75;;;1.58;;
19951;SDS011;10137;49.406;19.484;2022-08-11T12:17:48;4.60;;;1.27;;
19951;SDS011;10137;49.406;19.484;2022-08-11T12:20:17;4.80;;;1.38;;
19951;SDS011;10137;49.406;19.484;2022-08-11T12:22:46;2.47;;;0.93;;
19951;SDS011;10137;49.406;19.484;2022-08-11T12:25:32;1.38;;;0.90;;
19951;SDS011;10137;49.406;19.484;2022-08-11T12:28:20;3.67;;;1.00;;
19951;SDS011;10137;49.406;19.484;2022-08-11T12:30:48;3.85;;;1.17;;
19951;SDS011;10137;49.406;19.484;2022-08-11T12:33:18;2.20;;;1.55;;
19951;SDS011;10137;49.406;19.484;2022-08-11T12:35:51;2.92;;;1.40;;
19951;SDS011;10137;49.406;19.484;2022-08-11T12:38:21;1.88;;;1.20;;
19951;SDS011;10137;49.406;19.484;2022-08-11T12:40:50;5.20;;;1.13;;
19951;SDS011;10137;49.406;19.484;2022-08-11T12:43:41;1.10;;;0.93;;
19951;SDS011;10137;49.406;19.484;2022-08-11T12:46:30;2.83;;;1.13;;
19951;SDS011;10137;49.406;19.484;2022-08-11T12:49:04;2.92;;;1.20;;
19951;SDS011;10137;49.406;19.484;2022-08-11T12:51:56;3.45;;;1.30;;
19951;SDS011;10137;49.406;19.484;2022-08-11T12:54:30;2.28;;;1.25;;
19951;SDS011;10137;49.406;19.484;2022-08-11T12:57:08;2.63;;;1.40;;
19951;SDS011;10137;49.406;19.484;2022-08-11T13:00:04;1.88;;;1.08;;
19951;SDS011;10137;49.406;19.484;2022-08-11T13:02:50;2.90;;;1.02;;
19951;SDS011;10137;49.406;19.484;2022-08-11T13:05:37;2.28;;;1.00;;
19951;SDS011;10137;49.406;19.484;2022-08-11T13:08:07;7.13;;;1.42;;
19951;SDS011;10137;49.406;19.484;2022-08-11T13:10:36;1.80;;;1.20;;
19951;SDS011;10137;49.406;19.484;2022-08-11T13:13:23;2.50;;;1.25;;
19951;SDS011;10137;49.406;19.484;2022-08-11T13:15:53;5.30;;;1.70;;
19951;SDS011;10137;49.406;19.484;2022-08-11T13:18:26;5.15;;;1.58;;
19951;SDS011;10137;49.406;19.484;2022-08-11T13:20:55;2.92;;;1.10;;
19951;SDS011;10137;49.406;19.484;2022-08-11T13:23:27;7.25;;;2.03;;
19951;SDS011;10137;49.406;19.484;2022-08-11T13:25:57;2.50;;;1.52;;
19951;SDS011;10137;49.406;19.484;2022-08-11T13:28:24;8.90;;;1.73;;
19951;SDS011;10137;49.406;19.484;2022-08-11T13:30:53;2.72;;;1.10;;
19951;SDS011;10137;49.406;19.484;2022-08-11T13:33:40;2.05;;;0.90;;
19951;SDS011;10137;49.406;19.484;2022-08-11T13:36:15;3.22;;;1.40;;
19951;SDS011;10137;49.406;19.484;2022-08-11T13:38:46;4.20;;;1.50;;
19951;SDS011;10137;49.406;19.484;2022-08-11T13:41:15;10.20;;;1.38;;
19951;SDS011;10137;49.406;19.484;2022-08-11T13:44:12;3.40;;;1.20;;
19951;SDS011;10137;49.406;19.484;2022-08-11T13:46:44;7.53;;;1.20;;
19951;SDS011;10137;49.406;19.484;2022-08-11T13:49:16;6.15;;;1.42;;
19951;SDS011;10137;49.406;19.484;2022-08-11T13:51:44;1.67;;;1.10;;
19951;SDS011;10137;49.406;19.484;2022-08-11T13:54:21;1.77;;;1.15;;
19951;SDS011;10137;49.406;19.484;2022-08-11T13:56:53;5.50;;;1.33;;
19951;SDS011;10137;49.406;19.484;2022-08-11T13:59:23;4.13;;;1.23;;
19951;SDS011;10137;49.406;19.484;2022-08-11T14:01:54;3.28;;;1.52;;
19951;SDS011;10137;49.406;19.484;2022-08-11T14:04:27;5.82;;;1.52;;
19951;SDS011;10137;49.406;19.484;2022-08-11T14:06:58;1.55;;;1.30;;
19951;SDS011;10137;49.406;19.484;2022-08-11T14:09:33;4.07;;;1.60;;
19951;SDS011;10137;49.406;19.484;2022-08-11T14:12:06;2.55;;;1.25;;
19951;SDS011;10137;49.406;19.484;2022-08-11T14:14:58;4.65;;;1.02;;
19951;SDS011;10137;49.406;19.484;2022-08-11T14:17:34;4.45;;;1.77;;
19951;SDS011;10137;49.406;19.484;2022-08-11T14:20:06;3.40;;;1.10;;
19951;SDS011;10137;49.406;19.484;2022-08-11T14:22:37;12.85;;;2.08;;
19951;SDS011;10137;49.406;19.484;2022-08-11T14:25:07;3.33;;;1.10;;
19951;SDS011;10137;49.406;19.484;2022-08-11T14:27:38;3.30;;;1.10;;
19951;SDS011;10137;49.406;19.484;2022-08-11T14:30:06;2.25;;;1.35;;
19951;SDS011;10137;49.406;19.484;2022-08-11T14:33:00;3.65;;;1.30;;
19951;SDS011;10137;49.406;19.484;2022-08-11T14:35:32;2.55;;;1.27;;
19951;SDS011;10137;49.406;19.484;2022-08-11T14:38:02;3.05;;;1.20;;
19951;SDS011;10137;49.406;19.484;2022-08-11T14:40:30;3.38;;;1.20;;
19951;SDS011;10137;49.406;19.484;2022-08-11T14:43:15;4.32;;;1.30;;
19951;SDS011;10137;49.406;19.484;2022-08-11T14:46:00;4.60;;;1.25;;
19951;SDS011;10137;49.406;19.484;2022-08-11T14:48:47;1.88;;;1.35;;
19951;SDS011;10137;49.406;19.484;2022-08-11T14:51:16;3.25;;;1.33;;
19951;SDS011;10137;49.406;19.484;2022-08-11T14:53:46;4.35;;;1.40;;
19951;SDS011;10137;49.406;19.484;2022-08-11T14:56:34;1.95;;;1.35;;
19951;SDS011;10137;49.406;19.484;2022-08-11T14:59:02;4.18;;;1.90;;
19951;SDS011;10137;49.406;19.484;2022-08-11T15:01:31;3.35;;;1.40;;
19951;SDS011;10137;49.406;19.484;2022-08-11T15:04:20;2.55;;;1.73;;
19951;SDS011;10137;49.406;19.484;2022-08-11T15:06:52;3.97;;;1.60;;
19951;SDS011;10137;49.406;19.484;2022-08-11T15:09:20;5.70;;;2.47;;
19951;SDS011;10137;49.406;19.484;2022-08-11T15:11:47;5.95;;;2.67;;
19951;SDS011;10137;49.406;19.484;2022-08-11T15:14:34;5.18;;;2.30;;
19951;SDS011;10137;49.406;19.484;2022-08-11T15:17:20;10.40;;;5.03;;
19951;SDS011;10137;49.406;19.484;2022-08-11T15:19:53;7.20;;;4.97;;
19951;SDS011;10137;49.406;19.484;2022-08-11T15:22:39;15.70;;;8.50;;
19951;SDS011;10137;49.406;19.484;2022-08-11T15:25:25;9.07;;;7.25;;
19951;SDS011;10137;49.406;19.484;2022-08-11T15:27:55;5.20;;;2.78;;
19951;SDS011;10137;49.406;19.484;2022-08-11T15:30:42;4.07;;;2.40;;
19951;SDS011;10137;49.406;19.484;2022-08-11T15:33:28;3.00;;;2.42;;
19951;SDS011;10137;49.406;19.484;2022-08-11T15:36:16;4.15;;;3.10;;
19951;SDS011;10137;49.406;19.484;2022-08-11T15:39:05;4.88;;;2.85;;
19951;SDS011;10137;49.406;19.484;2022-08-11T15:41:40;12.43;;;5.87;;
19951;SDS011;10137;49.406;19.484;2022-08-11T15:44:32;6.80;;;3.50;;
19951;SDS011;10137;49.406;19.484;2022-08-11T15:47:22;4.65;;;2.55;;
19951;SDS011;10137;49.406;19.484;2022-08-11T15:49:54;4.70;;;2.10;;
19951;SDS011;10137;49.406;19.484;2022-08-11T15:52:28;4.63;;;1.88;;
19951;SDS011;10137;49.406;19.484;2022-08-11T15:54:58;3.95;;;2.08;;
19951;SDS011;10137;49.406;19.484;2022-08-11T15:57:34;3.53;;;1.67;;
19951;SDS011;10137;49.406;19.484;2022-08-11T16:00:21;3.10;;;2.03;;
19951;SDS011;10137;49.406;19.484;2022-08-11T16:03:08;3.73;;;2.67;;
19951;SDS011;10137;49.406;19.484;2022-08-11T16:05:54;6.15;;;2.63;;
19951;SDS011;10137;49.406;19.484;2022-08-11T16:08:24;3.65;;;2.03;;
19951;SDS011;10137;49.406;19.484;2022-08-11T16:10:51;4.35;;;1.88;;
19951;SDS011;10137;49.406;19.484;2022-08-11T16:13:22;5.00;;;2.00;;
19951;SDS011;10137;49.406;19.484;2022-08-11T16:16:12;6.00;;;2.10;;
19951;SDS011;10137;49.406;19.484;2022-08-11T16:18:51;3.58;;;2.13;;
19951;SDS011;10137;49.406;19.484;2022-08-11T16:21:22;3.47;;;1.90;;
19951;SDS011;10137;49.406;19.484;2022-08-11T16:23:54;3.63;;;1.50;;
19951;SDS011;10137;49.406;19.484;2022-08-11T16:26:25;2.83;;;1.65;;
19951;SDS011;10137;49.406;19.484;2022-08-11T16:28:59;3.30;;;1.63;;
19951;SDS011;10137;49.406;19.484;2022-08-11T16:31:28;2.40;;;1.55;;
19951;SDS011;10137;49.406;19.484;2022-08-11T16:33:58;2.78;;;1.65;;
19951;SDS011;10137;49.406;19.484;2022-08-11T16:36:28;2.35;;;1.40;;
19951;SDS011;10137;49.406;19.484;2022-08-11T16:39:14;2.22;;;1.50;;
19951;SDS011;10137;49.406;19.484;2022-08-11T16:41:44;3.90;;;1.48;;
19951;SDS011;10137;49.406;19.484;2022-08-11T16:44:33;4.28;;;1.40;;